Time;durP1;ratioP1;P1;durP2;ratioP2;P2;SDS_P1;SDS_P2;PMS_P1;PMS_P2;Temp;Humidity;BMP_temperature;BMP_pressure;BME280_temperature;BME280_humidity;BME280_pressure;Samples;Min_cycle;Max_cycle;Signal;HPM_P1;HPM_P2
2021/10/02 00:31:56;;;;;;;13.63;9.93;;;;;;;11.42;100.00;95961.59;1019564;29;20023;-69
2021/10/02 00:36:34;;;;;;;14.82;10.75;;;;;;;11.35;100.00;95967.22;1027973;28;20027;-69
2021/10/02 00:41:03;;;;;;;15.40;9.57;;;;;;;11.32;100.00;95957.09;1029733;28;20553;-69
2021/10/02 00:44:40;;;;;;;14.45;9.82;;;;;;;11.33;100.00;95947.97;1027796;28;20411;-69
2021/10/02 00:45:10;;;;;;;;;;;;;;;11.31;100.00;95949.31;1020377;29;20507;-67
2021/10/02 00:45:41;;;;;;;14.83;9.00;;;;;;;11.32;100.00;95949.06;1019898;29;19950;-67
2021/10/02 00:46:13;;;;;;;16.20;10.73;;;;;;;11.32;100.00;95950.94;1021049;29;20058;-67
2021/10/02 00:46:47;;;;;;;15.60;9.90;;;;;;;11.31;100.00;95944.78;1022914;28;20501;-67
2021/10/02 00:47:19;;;;;;;15.45;9.95;;;;;;;11.33;100.00;95955.22;1023868;29;20539;-69
2021/10/02 00:47:54;;;;;;;15.00;10.18;;;;;;;11.35;100.00;95956.53;1024476;28;20043;-68
2021/10/02 00:48:25;;;;;;;16.65;11.20;;;;;;;11.37;100.00;95948.25;1025397;28;20035;-68
2021/10/02 00:48:55;;;;;;;18.20;10.37;;;;;;;11.34;100.00;95943.44;1019844;29;20024;-68
2021/10/02 00:49:26;;;;;;;15.47;9.97;;;;;;;11.32;100.00;95949.06;1016999;29;20381;-68
2021/10/02 00:49:56;;;;;;;12.53;9.20;;;;;;;11.34;100.00;95952.25;1019900;29;20024;-68
2021/10/02 00:50:27;;;;;;;12.87;9.33;;;;;;;11.36;100.00;95947.44;1016285;29;20028;-68
2021/10/02 00:50:59;;;;;;;16.13;10.03;;;;;;;11.34;100.00;95946.91;1015882;29;20072;-68
2021/10/02 00:51:30;;;;;;;15.23;10.75;;;;;;;11.34;100.00;95946.09;1016025;29;20418;-68
2021/10/02 00:52:01;;;;;;;14.63;10.70;;;;;;;11.33;100.00;95947.19;1012578;29;20040;-68
2021/10/02 00:52:31;;;;;;;18.30;10.53;;;;;;;11.16;100.00;95947.53;1012142;29;20418;-68
2021/10/02 00:53:02;;;;;;;14.77;10.43;;;;;;;11.25;100.00;95951.22;1013006;29;20394;-68
2021/10/02 00:53:32;;;;;;;14.20;10.43;;;;;;;11.29;100.00;95940.78;1020041;29;20115;-68
2021/10/02 00:54:02;;;;;;;14.23;10.27;;;;;;;11.31;100.00;95950.16;1023927;28;20031;-68
2021/10/02 00:54:33;;;;;;;14.17;10.33;;;;;;;11.30;100.00;95945.84;1023842;29;20035;-68
2021/10/02 00:55:04;;;;;;;14.10;9.57;;;;;;;11.32;100.00;95945.59;1023842;29;20031;-68
2021/10/02 00:55:34;;;;;;;14.82;9.98;;;;;;;11.35;100.00;95942.34;1023678;29;20042;-68
2021/10/02 00:56:05;;;;;;;15.77;9.53;;;;;;;11.37;100.00;95948.25;1020127;28;20020;-68
2021/10/02 00:56:35;;;;;;;15.93;9.37;;;;;;;11.36;100.00;95947.44;1027833;28;20062;-68
2021/10/02 00:57:06;;;;;;;13.83;10.00;;;;;;;11.38;100.00;95950.63;1027766;28;20030;-68
2021/10/02 00:57:36;;;;;;;13.83;9.73;;;;;;;11.38;100.00;95947.94;1028031;28;20034;-68
2021/10/02 00:58:07;;;;;;;14.90;10.27;;;;;;;11.39;100.00;95946.06;1031806;28;20456;-68
2021/10/02 00:58:43;;;;;;;14.38;9.95;;;;;;;11.39;100.00;95946.88;1031887;28;20023;-68
2021/10/02 00:59:14;;;;;;;13.75;9.35;;;;;;;11.40;100.00;95943.13;1032165;28;20026;-69
2021/10/02 00:59:45;;;;;;;15.50;10.10;;;;;;;11.39;100.00;95940.72;1031960;28;20034;-69
2021/10/02 01:00:16;;;;;;;16.23;9.27;;;;;;;11.42;100.00;95951.69;1032106;28;20080;-68
2021/10/02 01:00:48;;;;;;;13.17;9.70;;;;;;;11.46;100.00;95946.56;1032112;28;20092;-68
2021/10/02 01:01:24;;;;;;;12.15;9.30;;;;;;;11.47;100.00;95947.38;1032120;28;20173;-68
2021/10/02 01:02:25;;;;;;;14.63;9.70;;;;;;;11.38;100.00;95945.28;1027867;28;20454;-68
2021/10/02 01:03:07;;;;;;;13.55;9.32;;;;;;;11.41;100.00;95946.59;1019978;29;20065;-69
2021/10/02 01:03:41;;;;;;;12.32;8.80;;;;;;;11.43;100.00;95945.25;1015228;29;20100;-68
2021/10/02 01:04:40;;;;;;;13.63;9.27;;;;;;;11.42;100.00;95949.00;1016501;29;20024;-68
2021/10/02 01:05:46;;;;;;;15.00;9.30;;;;;;;11.43;100.00;95944.44;1020170;28;20082;-68
2021/10/02 01:06:46;;;;;;;17.20;9.70;;;;;;;11.42;100.00;95949.00;1031788;28;20026;-69
2021/10/02 01:07:24;;;;;;;14.73;9.00;;;;;;;11.42;100.00;95945.53;1027774;28;20031;-69
2021/10/02 01:08:16;;;;;;;16.65;9.73;;;;;;;11.43;100.00;95952.47;1019142;29;20433;-69
2021/10/02 01:08:48;;;;;;;15.90;9.40;;;;;;;11.44;100.00;95946.06;1023653;28;20035;-69
2021/10/02 01:09:49;;;;;;;13.07;9.02;;;;;;;11.44;100.00;95944.16;1023808;29;20431;-68
2021/10/02 01:10:22;;;;;;;;;;;;;;;11.42;100.00;95950.88;1028169;28;20058;-68
2021/10/02 01:10:57;;;;;;;16.73;9.15;;;;;;;11.47;100.00;95947.38;1027946;28;19914;-67
2021/10/02 01:11:39;;;;;;;14.82;9.18;;;;;;;11.46;100.00;95943.88;1031668;28;20084;-65
2021/10/02 01:12:15;;;;;;;14.48;9.95;;;;;;;11.46;100.00;95951.91;1031925;28;20105;-65
2021/10/02 01:13:06;;;;;;;12.55;9.27;;;;;;;11.43;100.00;95947.13;1031731;28;20026;-66
2021/10/02 01:13:57;;;;;;;12.85;8.90;;;;;;;11.43;100.00;95947.13;1027541;28;20026;-66
2021/10/02 01:14:33;;;;;;;15.93;9.80;;;;;;;11.44;100.00;95952.19;1029215;28;20154;-66
2021/10/02 01:15:06;;;;;;;13.80;9.43;;;;;;;11.44;100.00;95944.16;1027755;28;20095;-66
2021/10/02 01:15:45;;;;;;;14.82;8.85;;;;;;;11.47;100.00;95944.72;1023762;29;20019;-66
2021/10/02 01:16:39;;;;;;;14.98;8.93;;;;;;;11.48;100.00;95938.28;1019619;29;20035;-66
2021/10/02 01:17:17;;;;;;;14.73;9.15;;;;;;;11.48;100.00;95943.63;1023584;28;20416;-66
2021/10/02 01:17:57;;;;;;;14.45;9.60;;;;;;;11.50;100.00;95941.47;1020077;29;20031;-66
2021/10/02 01:18:29;;;;;;;;;;;;;;;11.49;100.00;95945.22;1025193;28;20023;-67
2021/10/02 01:19:29;;;;;;;13.88;9.55;;;;;;;11.48;100.00;95939.06;1027767;28;20392;-67
2021/10/02 01:20:07;;;;;;;12.43;9.25;;;;;;;11.50;100.00;95939.59;1031754;28;20026;-67
2021/10/02 01:20:47;;;;;;;12.50;9.07;;;;;;;11.49;100.00;95940.66;1031727;28;20023;-67
2021/10/02 01:21:24;;;;;;;14.27;9.98;;;;;;;11.49;100.00;95945.22;1024689;28;20030;-67
2021/10/02 01:22:31;;;;;;;15.75;9.73;;;;;;;11.51;100.00;95946.53;1027769;28;20318;-67
2021/10/02 01:23:14;;;;;;;15.15;9.73;;;;;;;11.46;100.00;95933.19;1027990;28;20467;-68
2021/10/02 01:24:09;;;;;;;16.05;10.15;;;;;;;11.46;100.00;95938.53;1027984;28;20018;-68
2021/10/02 01:24:49;;;;;;;14.23;9.52;;;;;;;11.45;100.00;95926.22;1023734;29;20020;-68
2021/10/02 01:25:43;;;;;;;13.63;9.80;;;;;;;11.40;100.00;95932.41;1023803;29;20031;-68
2021/10/02 01:26:32;;;;;;;14.43;9.30;;;;;;;11.43;100.00;95931.88;1023626;29;20063;-69
2021/10/02 01:27:11;;;;;;;13.40;9.05;;;;;;;11.40;100.00;95937.75;1023780;29;20443;-69
2021/10/02 01:28:03;;;;;;;12.25;8.93;;;;;;;11.35;100.00;95937.00;1022022;29;20039;-69
2021/10/02 01:28:35;;;;;;;13.93;9.88;;;;;;;11.35;100.00;95940.47;1023675;28;20024;-69
2021/10/02 01:29:07;;;;;;;14.18;9.38;;;;;;;11.33;100.00;95939.16;1019759;29;20114;-69
2021/10/02 01:29:38;;;;;;;13.88;9.27;;;;;;;11.32;100.00;95930.34;1018918;29;20024;-69
2021/10/02 01:30:14;;;;;;;16.33;10.03;;;;;;;11.33;100.00;95934.59;1015841;29;20043;-69
2021/10/02 01:31:31;;;;;;;13.90;9.05;;;;;;;11.30;100.00;95932.47;1018882;29;20505;-69
2021/10/02 01:33:22;;;;;;;13.02;9.57;;;;;;;11.27;100.00;95926.88;1027435;28;20125;-69
2021/10/02 01:34:07;;;;;;;21.35;10.07;;;;;;;11.25;100.00;95921.78;1027383;28;20031;-69
2021/10/02 01:35:24;;;;;;;13.60;9.50;;;;;;;11.27;100.00;95927.69;1019477;29;20039;-69
2021/10/02 01:47:08;;;;;;;16.73;8.75;;;;;;;11.31;100.00;95925.22;1015408;29;20039;-69
2021/10/02 01:47:14;;;;;;;16.65;9.70;;;;;;;11.24;100.00;95925.53;1032386;28;20448;-69
2021/10/02 01:47:49;;;;;;;12.55;9.27;;;;;;;11.25;100.00;95921.78;1031694;28;20101;-69
2021/10/02 01:48:20;;;;;;;14.15;9.13;;;;;;;11.27;100.00;95918.84;1023704;29;20111;-69
2021/10/02 01:48:50;;;;;;;14.37;9.83;;;;;;;11.29;100.00;95925.53;1019743;29;20027;-69
2021/10/02 01:49:20;;;;;;;13.90;9.10;;;;;;;11.32;100.00;95924.97;1019724;29;20027;-69
2021/10/02 01:49:53;;;;;;;16.10;10.03;;;;;;;11.33;100.00;95921.22;1016768;29;20430;-69
2021/10/02 01:50:26;;;;;;;12.32;9.25;;;;;;;11.34;100.00;95925.50;1020019;29;20075;-69
2021/10/02 01:50:56;;;;;;;12.10;8.98;;;;;;;11.36;100.00;95920.69;1020603;29;20023;-69
2021/10/02 01:51:27;;;;;;;12.87;9.70;;;;;;;11.38;100.00;95913.16;1020035;29;20032;-69
2021/10/02 01:51:58;;;;;;;15.43;8.80;;;;;;;11.40;100.00;95924.38;1017713;29;20040;-69
2021/10/02 01:52:32;;;;;;;16.20;9.93;;;;;;;11.42;100.00;95916.09;1017768;29;20038;-69
2021/10/02 01:53:03;;;;;;;15.35;9.60;;;;;;;11.43;100.00;95915.81;1020535;29;20551;-69
2021/10/02 01:53:37;;;;;;;13.25;9.20;;;;;;;11.43;100.00;95918.50;1019783;29;20043;-69
2021/10/02 01:54:07;;;;;;;23.45;10.05;;;;;;;11.43;100.00;95915.81;1020406;29;20039;-69
2021/10/02 01:54:37;;;;;;;14.53;9.33;;;;;;;11.48;100.00;95917.66;1016912;29;20043;-69
2021/10/02 01:55:10;;;;;;;13.83;9.27;;;;;;;11.52;100.00;95923.28;1020587;29;20046;-69
2021/10/02 01:55:40;;;;;;;13.75;9.35;;;;;;;11.50;100.00;95920.06;1016561;29;20481;-69
2021/10/02 01:56:12;;;;;;;14.20;8.80;;;;;;;11.50;100.00;95914.69;1016698;29;20029;-69
2021/10/02 01:56:42;;;;;;;12.95;9.15;;;;;;;11.50;100.00;95922.72;1021001;29;20028;-69
2021/10/02 01:57:13;;;;;;;13.73;8.50;;;;;;;11.50;100.00;95920.84;1021087;28;20098;-70
2021/10/02 01:57:48;;;;;;;16.13;9.90;;;;;;;11.52;100.00;95918.72;1020601;29;20051;-70
2021/10/02 01:58:18;;;;;;;12.13;9.10;;;;;;;11.56;100.00;95913.59;1016490;29;20028;-69
2021/10/02 01:58:49;;;;;;;12.77;9.40;;;;;;;11.55;100.00;95917.34;1016610;29;20447;-70
2021/10/02 01:59:20;;;;;;;14.63;9.43;;;;;;;11.56;100.00;95922.41;1018156;29;20467;-69
2021/10/02 01:59:51;;;;;;;18.08;9.13;;;;;;;11.57;100.00;95918.69;1029023;28;20050;-69
2021/10/02 02:00:21;;;;;;;12.87;8.90;;;;;;;11.57;100.00;95921.34;1028387;28;20031;-69
2021/10/02 02:00:51;;;;;;;13.00;8.27;;;;;;;11.58;100.00;95917.59;1024409;29;20047;-69
2021/10/02 02:01:22;;;;;;;12.63;8.97;;;;;;;11.60;100.00;95922.66;1020385;29;20024;-69
2021/10/02 02:01:52;;;;;;;13.50;8.90;;;;;;;11.56;100.00;95927.75;1020533;29;20031;-70
2021/10/02 02:02:29;;;;;;;13.27;8.70;;;;;;;11.58;100.00;95922.16;1016594;29;20039;-69
2021/10/02 02:03:01;;;;;;;14.10;9.02;;;;;;;11.58;100.00;95916.81;1020422;29;20034;-69
2021/10/02 02:03:33;;;;;;;12.57;8.93;;;;;;;11.60;100.00;95928.03;1016510;29;20030;-69
2021/10/02 02:04:04;;;;;;;10.88;8.18;;;;;;;11.59;100.00;95927.22;1017801;29;20521;-69
2021/10/02 02:04:34;;;;;;;14.63;8.53;;;;;;;11.62;100.00;95924.00;1017197;29;20123;-69
2021/10/02 02:05:07;;;;;;;11.07;8.33;;;;;;;11.63;100.00;95919.44;1016655;29;20500;-69
2021/10/02 02:05:37;;;;;;;12.48;8.93;;;;;;;11.65;100.00;95923.44;1020457;29;20024;-69
2021/10/02 02:06:08;;;;;;;11.97;8.20;;;;;;;11.65;100.00;95928.00;1020442;29;20156;-69
2021/10/02 02:06:39;;;;;;;11.63;8.30;;;;;;;11.65;100.00;95919.97;1016476;29;20058;-69
2021/10/02 02:07:09;;;;;;;11.40;8.57;;;;;;;11.68;100.00;95916.75;1020505;29;20032;-69
2021/10/02 02:07:44;;;;;;;12.17;8.73;;;;;;;11.68;100.00;95922.09;1020524;29;20035;-69
2021/10/02 02:08:15;;;;;;;12.35;8.77;;;;;;;11.68;100.00;95920.22;1016999;29;20129;-69
2021/10/02 02:08:45;;;;;;;14.68;8.75;;;;;;;11.73;100.00;95922.06;1020425;29;20028;-69
2021/10/02 02:09:16;;;;;;;14.27;9.07;;;;;;;11.67;100.00;95923.97;1021227;29;20024;-69
2021/10/02 02:09:46;;;;;;;12.30;8.37;;;;;;;11.67;100.00;95923.19;1020003;29;20032;-69
2021/10/02 02:10:17;;;;;;;11.33;8.57;;;;;;;11.65;100.00;95923.44;1012859;29;20044;-69
2021/10/02 02:10:47;;;;;;;14.00;8.80;;;;;;;11.54;100.00;95916.56;1020656;29;20039;-69
2021/10/02 02:11:18;;;;;;;13.40;8.47;;;;;;;11.58;100.00;95922.94;1020329;29;20023;-69
2021/10/02 02:11:49;;;;;;;11.67;8.97;;;;;;;11.58;100.00;95919.47;1024482;28;20039;-69
2021/10/02 02:12:19;;;;;;;11.60;7.87;;;;;;;11.61;100.00;95922.38;1024331;29;20027;-69
2021/10/02 02:12:50;;;;;;;13.93;9.10;;;;;;;11.65;100.00;95923.44;1020704;28;20027;-69
2021/10/02 02:13:20;;;;;;;12.30;8.80;;;;;;;11.65;100.00;95919.97;1024469;29;20051;-69
2021/10/02 02:13:51;;;;;;;11.63;8.53;;;;;;;11.66;100.00;95919.66;1020693;29;20055;-69
2021/10/02 02:14:24;;;;;;;13.10;8.88;;;;;;;11.68;100.00;95922.88;1024371;29;20476;-69
2021/10/02 02:14:54;;;;;;;11.30;8.93;;;;;;;11.71;100.00;95916.16;1024919;28;20077;-69
2021/10/02 02:15:26;;;;;;;14.40;9.10;;;;;;;11.72;100.00;95920.47;1020863;29;20500;-69
2021/10/02 02:15:58;;;;;;;13.55;8.98;;;;;;;11.73;100.00;95915.91;1024258;28;20034;-70
2021/10/02 02:16:28;;;;;;;12.32;8.73;;;;;;;11.70;100.00;95918.03;1020334;29;20028;-69
2021/10/02 02:16:58;;;;;;;13.93;8.47;;;;;;;11.69;100.00;95921.00;1016482;29;20024;-69
2021/10/02 02:17:29;;;;;;;15.60;9.00;;;;;;;11.69;100.00;95910.31;1016671;29;20031;-69
2021/10/02 02:18:10;;;;;;;14.47;8.37;;;;;;;11.74;100.00;95915.63;1016506;29;20059;-69
2021/10/02 02:18:41;;;;;;;14.68;9.48;;;;;;;11.76;100.00;95916.13;1019510;29;20024;-69
2021/10/02 02:19:12;;;;;;;13.00;8.47;;;;;;;11.76;100.00;95918.00;1021840;29;20063;-69
2021/10/02 02:19:44;;;;;;;11.48;8.45;;;;;;;11.75;100.00;95911.84;1020517;29;20031;-69
2021/10/02 02:20:18;;;;;;;11.85;8.07;;;;;;;11.73;100.00;95911.34;1020897;29;20385;-69
2021/10/02 02:21:00;;;;;;;15.05;8.52;;;;;;;11.75;100.00;95919.88;1025392;28;20069;-69
2021/10/02 02:21:30;;;;;;;13.00;8.30;;;;;;;11.77;100.00;95917.72;1030567;28;20078;-69
2021/10/02 02:22:01;;;;;;;11.33;8.43;;;;;;;11.79;100.00;95918.25;1032655;28;20093;-69
2021/10/02 02:22:32;;;;;;;12.85;8.40;;;;;;;11.77;100.00;95916.94;1032415;28;20479;-69
2021/10/02 02:23:03;;;;;;;15.87;8.63;;;;;;;11.79;100.00;95923.63;1032586;28;20026;-69
2021/10/02 02:23:33;;;;;;;14.05;9.32;;;;;;;11.80;100.00;95914.50;1028383;28;20058;-69
2021/10/02 02:24:04;;;;;;;12.40;8.47;;;;;;;11.82;100.00;95919.59;1028499;28;20085;-69
2021/10/02 02:24:35;;;;;;;12.73;9.07;;;;;;;11.83;100.00;95913.97;1024510;29;20110;-69
2021/10/02 02:25:05;;;;;;;15.83;9.13;;;;;;;11.84;100.00;95910.22;1020737;28;20480;-69
2021/10/02 02:25:36;;;;;;;14.07;9.23;;;;;;;11.84;100.00;95915.56;1028466;28;20085;-69
2021/10/02 02:26:08;;;;;;;14.80;9.10;;;;;;;11.80;100.00;95908.34;1024498;29;20449;-69
2021/10/02 02:26:39;;;;;;;12.27;8.40;;;;;;;11.80;100.00;95909.13;1020771;29;20604;-69
2021/10/02 02:27:09;;;;;;;14.53;8.67;;;;;;;11.78;100.00;95913.19;1024527;29;20035;-69
2021/10/02 02:27:40;;;;;;;14.20;8.93;;;;;;;11.80;100.00;95908.34;1020780;29;20015;-69
2021/10/02 02:28:10;;;;;;;11.47;8.40;;;;;;;11.81;100.00;95913.41;1025167;28;20031;-69
2021/10/02 02:28:41;;;;;;;12.50;8.50;;;;;;;11.82;100.00;95907.00;1028399;28;20380;-69
2021/10/02 02:29:11;;;;;;;12.80;8.00;;;;;;;11.81;100.00;95909.94;1024534;28;20559;-69
2021/10/02 02:29:41;;;;;;;10.90;8.53;;;;;;;11.81;100.00;95904.59;1024498;29;20027;-69
2021/10/02 02:30:12;;;;;;;12.63;9.27;;;;;;;11.80;100.00;95900.31;1024633;28;20019;-69
2021/10/02 02:30:43;;;;;;;14.50;8.97;;;;;;;11.81;100.00;95905.38;1028524;28;20027;-69
2021/10/02 02:31:13;;;;;;;15.65;8.40;;;;;;;11.81;100.00;95908.06;1024649;28;20023;-69
2021/10/02 02:31:44;;;;;;;13.10;8.30;;;;;;;11.83;100.00;95899.81;1016356;29;20091;-69
2021/10/02 02:32:14;;;;;;;14.87;9.10;;;;;;;11.84;100.00;95899.50;1016590;29;20016;-69
2021/10/02 02:32:45;;;;;;;12.73;8.27;;;;;;;11.83;100.00;95910.50;1020460;29;20030;-69
2021/10/02 02:33:19;;;;;;;12.90;8.33;;;;;;;11.84;100.00;95898.72;1020613;28;20023;-69
2021/10/02 02:33:49;;;;;;;13.35;8.55;;;;;;;11.84;100.00;95901.38;1024367;29;20055;-69
2021/10/02 02:34:20;;;;;;;12.67;7.83;;;;;;;11.82;100.00;95898.97;1024367;28;20030;-69
2021/10/02 02:34:50;;;;;;;14.50;8.50;;;;;;;11.85;100.00;95900.31;1024498;29;20034;-69
2021/10/02 02:35:21;;;;;;;14.10;8.63;;;;;;;11.84;100.00;95904.88;1024473;28;20015;-69
2021/10/02 02:35:52;;;;;;;11.98;8.50;;;;;;;11.86;100.00;95902.69;1028574;28;20026;-69
2021/10/02 02:36:24;;;;;;;12.20;8.40;;;;;;;11.85;100.00;95903.78;1024380;29;20102;-69
2021/10/02 02:36:56;;;;;;;12.45;8.63;;;;;;;11.85;100.00;95898.44;1024292;29;20027;-69
2021/10/02 02:37:27;;;;;;;11.45;7.97;;;;;;;11.82;100.00;95906.22;1024479;29;20015;-69
2021/10/02 02:37:57;;;;;;;11.60;8.17;;;;;;;11.84;100.00;95901.38;1021019;29;20032;-69
2021/10/02 02:38:28;;;;;;;12.93;8.53;;;;;;;11.81;100.00;95899.22;1024321;28;20161;-69
2021/10/02 02:38:58;;;;;;;13.43;8.37;;;;;;;11.81;100.00;95901.91;1024442;29;20053;-69
2021/10/02 02:39:28;;;;;;;10.90;7.60;;;;;;;11.79;100.00;95901.41;1024467;28;20027;-69
2021/10/02 02:39:59;;;;;;;9.83;7.43;;;;;;;11.80;100.00;95906.47;1028367;28;20023;-69
2021/10/02 02:40:30;;;;;;;12.43;7.85;;;;;;;11.80;100.00;95909.13;1028378;28;20503;-69
2021/10/02 02:41:00;;;;;;;10.37;7.67;;;;;;;11.78;100.00;95900.59;1028394;28;20102;-69
2021/10/02 02:41:31;;;;;;;11.40;8.20;;;;;;;11.78;100.00;95905.16;1021495;29;20119;-69
2021/10/02 02:42:01;;;;;;;13.73;8.13;;;;;;;11.78;100.00;95902.47;1024412;28;20412;-69
2021/10/02 02:42:32;;;;;;;12.07;8.30;;;;;;;11.76;100.00;95901.94;1024458;29;20443;-69
2021/10/02 02:43:02;;;;;;;11.27;7.87;;;;;;;11.78;100.00;95905.97;1024632;28;20026;-69
2021/10/02 02:43:36;;;;;;;14.43;8.83;;;;;;;11.80;100.00;95906.47;1032421;28;20475;-69
2021/10/02 02:44:07;;;;;;;14.93;8.98;;;;;;;11.77;100.00;95907.00;1024348;29;20404;-69
2021/10/02 02:44:37;;;;;;;11.88;8.25;;;;;;;11.77;100.00;95900.84;1025011;28;20034;-69
2021/10/02 02:45:08;;;;;;;12.87;8.50;;;;;;;11.78;100.00;95897.94;1028440;28;20479;-69
2021/10/02 02:45:39;;;;;;;12.00;7.97;;;;;;;11.77;100.00;95906.22;1028753;28;20029;-69
2021/10/02 02:46:12;;;;;;;11.07;8.03;;;;;;;11.76;100.00;95904.63;1028400;28;20412;-69
2021/10/02 02:46:43;;;;;;;12.90;8.00;;;;;;;11.76;100.00;95907.28;1028202;28;20045;-69
2021/10/02 02:47:16;;;;;;;10.37;7.93;;;;;;;11.80;100.00;95903.00;1020394;29;20039;-69
2021/10/02 02:47:55;;;;;;;10.65;8.05;;;;;;;11.80;100.00;95898.44;1022106;28;20035;-69
2021/10/02 02:48:30;;;;;;;11.95;8.15;;;;;;;11.81;100.00;95905.38;1020408;29;20557;-69
2021/10/02 02:49:11;;;;;;;11.85;7.55;;;;;;;11.82;100.00;95911.56;1024886;28;20116;-69
2021/10/02 02:49:54;;;;;;;12.38;8.10;;;;;;;11.83;100.00;95908.63;1016508;29;20075;-69
2021/10/02 02:50:32;;;;;;;11.63;7.93;;;;;;;11.79;100.00;95910.22;1016532;29;20084;-69
2021/10/02 02:51:08;;;;;;;11.68;7.63;;;;;;;11.78;100.00;95911.31;1012632;29;20032;-69
2021/10/02 02:52:20;;;;;;;13.45;7.78;;;;;;;11.78;100.00;95911.31;1012598;29;20476;-69
2021/10/02 02:52:58;;;;;;;11.30;8.10;;;;;;;11.82;100.00;95914.25;1016028;29;20422;-69
2021/10/02 02:53:46;;;;;;;11.07;7.90;;;;;;;11.80;100.00;95909.13;1022352;29;20028;-69
2021/10/02 02:54:40;;;;;;;13.57;8.50;;;;;;;11.84;100.00;95910.22;1016486;29;20028;-69
2021/10/02 02:55:12;;;;;;;12.70;8.27;;;;;;;11.87;100.00;95911.53;1018435;29;20031;-69
2021/10/02 02:55:51;;;;;;;11.52;7.75;;;;;;;11.86;100.00;95913.41;1012375;29;20471;-69
2021/10/02 02:56:26;;;;;;;11.85;8.02;;;;;;;11.85;100.00;95911.81;1012620;29;20490;-69
2021/10/02 02:56:59;;;;;;;11.88;8.23;;;;;;;11.82;100.00;95915.03;1016468;29;20474;-69
2021/10/02 02:57:39;;;;;;;11.85;7.65;;;;;;;11.84;100.00;95914.78;1016478;29;20673;-69
2021/10/02 02:58:09;;;;;;;11.98;8.13;;;;;;;11.83;100.00;95910.50;1018710;29;20107;-69
2021/10/02 02:58:39;;;;;;;13.00;7.57;;;;;;;11.85;100.00;95911.00;1018734;29;20032;-69
2021/10/02 02:59:21;;;;;;;12.03;7.87;;;;;;;11.81;100.00;95909.94;1013708;29;20363;-69
2021/10/02 02:59:59;;;;;;;10.73;7.93;;;;;;;11.83;100.00;95916.66;1020248;29;20721;-69
2021/10/02 03:00:30;;;;;;;11.73;7.90;;;;;;;11.84;100.00;95912.09;1016552;29;20036;-69
2021/10/02 03:01:01;;;;;;;17.53;8.07;;;;;;;11.86;100.00;95923.31;1024218;28;20050;-69
2021/10/02 03:01:31;;;;;;;11.57;8.15;;;;;;;11.89;100.00;95920.09;1020070;29;20075;-69
2021/10/02 03:02:02;;;;;;;11.97;8.60;;;;;;;11.90;100.00;95919.00;1026556;28;20039;-69
2021/10/02 03:02:43;;;;;;;15.83;8.57;;;;;;;11.88;100.00;95913.94;1020419;29;20514;-69
2021/10/02 03:03:13;;;;;;;11.80;8.25;;;;;;;11.90;100.00;95916.34;1016427;29;20035;-69
2021/10/02 03:03:44;;;;;;;11.50;8.07;;;;;;;11.88;100.00;95913.94;1024333;29;20031;-69
2021/10/02 03:04:15;;;;;;;12.23;7.78;;;;;;;11.90;100.00;95921.69;1016354;29;20185;-69
2021/10/02 03:04:46;;;;;;;12.73;8.27;;;;;;;11.90;100.00;95914.44;1016425;29;20019;-69
2021/10/02 03:05:16;;;;;;;11.90;8.33;;;;;;;11.91;100.00;95915.25;1020309;29;20027;-69
2021/10/02 03:05:46;;;;;;;12.30;8.00;;;;;;;11.93;100.00;95913.09;1020324;29;20385;-69
2021/10/02 03:06:18;;;;;;;14.93;9.00;;;;;;;11.95;100.00;95916.28;1016370;29;20394;-69
2021/10/02 03:06:49;;;;;;;12.95;8.30;;;;;;;11.94;100.00;95920.84;1016484;29;20035;-69
2021/10/02 03:07:21;;;;;;;14.75;8.45;;;;;;;11.94;100.00;95918.19;1016461;29;20520;-69
2021/10/02 03:07:54;;;;;;;12.27;8.75;;;;;;;11.94;100.00;95917.38;1016485;29;20028;-69
2021/10/02 03:08:24;;;;;;;15.48;9.00;;;;;;;11.95;100.00;95911.72;1012455;29;20033;-69
2021/10/02 03:08:55;;;;;;;12.63;7.97;;;;;;;11.96;100.00;95913.31;1016362;29;20343;-69
2021/10/02 03:09:25;;;;;;;12.00;8.73;;;;;;;11.95;100.00;95916.28;1016491;29;20560;-69
2021/10/02 03:09:56;;;;;;;12.43;8.57;;;;;;;11.92;100.00;95916.84;1016385;29;20107;-69
2021/10/02 03:10:26;;;;;;;12.37;7.83;;;;;;;11.92;100.00;95923.00;1016430;29;20073;-69
2021/10/02 03:11:00;;;;;;;12.00;8.40;;;;;;;11.93;100.00;95908.53;1020242;29;20024;-69
2021/10/02 03:11:31;;;;;;;12.13;8.38;;;;;;;11.93;100.00;95913.91;1020299;29;20027;-69
2021/10/02 03:12:01;;;;;;;12.77;8.00;;;;;;;11.94;100.00;95917.38;1020219;29;20377;-69
2021/10/02 03:12:33;;;;;;;13.37;8.27;;;;;;;11.92;100.00;95917.63;1023809;28;21811;-69
2021/10/02 03:13:11;;;;;;;14.68;8.60;;;;;;;11.94;100.00;95914.69;1021088;29;20052;-69
2021/10/02 03:13:42;;;;;;;13.65;8.55;;;;;;;11.90;100.00;95914.44;1016366;29;20524;-69
2021/10/02 03:14:12;;;;;;;11.40;8.13;;;;;;;11.93;100.00;95916.59;1012449;29;20109;-69
2021/10/02 03:14:44;;;;;;;11.20;7.80;;;;;;;11.94;100.00;95915.50;1016355;29;20027;-69
2021/10/02 03:15:16;;;;;;;14.57;8.52;;;;;;;11.95;100.00;95917.09;1016300;29;20016;-69
2021/10/02 03:15:47;;;;;;;15.98;8.63;;;;;;;11.96;100.00;95912.53;1012453;29;20021;-69
2021/10/02 03:16:17;;;;;;;13.70;7.90;;;;;;;11.97;100.00;95911.44;1016382;29;20121;-69
2021/10/02 03:16:50;;;;;;;12.83;8.07;;;;;;;11.96;100.00;95917.88;1020325;29;20057;-69
2021/10/02 03:17:20;;;;;;;10.98;8.38;;;;;;;11.96;100.00;95912.53;1024188;29;20299;-69
2021/10/02 03:17:51;;;;;;;10.93;7.60;;;;;;;11.97;100.00;95914.13;1016278;29;20478;-69
2021/10/02 03:18:21;;;;;;;11.40;8.27;;;;;;;11.95;100.00;95922.44;1016415;29;20032;-69
2021/10/02 03:18:58;;;;;;;11.77;8.53;;;;;;;11.95;100.00;95911.72;1016522;29;20123;-69
2021/10/02 03:19:28;;;;;;;15.25;9.00;;;;;;;11.99;100.00;95911.19;1017233;29;20416;-69
2021/10/02 03:19:59;;;;;;;14.80;9.30;;;;;;;12.00;100.00;95912.78;1021173;29;20028;-69
2021/10/02 03:20:30;;;;;;;11.87;8.67;;;;;;;11.98;100.00;95913.06;1021139;29;20028;-69
2021/10/02 03:21:00;;;;;;;12.60;8.13;;;;;;;11.99;100.00;95911.19;1024735;28;20015;-69
2021/10/02 03:21:30;;;;;;;14.87;8.53;;;;;;;11.98;100.00;95915.75;1024300;29;20476;-69
2021/10/02 03:22:01;;;;;;;11.47;8.27;;;;;;;11.97;100.00;95911.44;1017462;29;20434;-69
2021/10/02 03:22:31;;;;;;;14.30;8.47;;;;;;;11.97;100.00;95908.75;1016299;29;20024;-69
2021/10/02 03:23:02;;;;;;;12.80;8.20;;;;;;;11.95;100.00;95914.41;1012795;29;20036;-69
2021/10/02 03:23:32;;;;;;;12.27;8.60;;;;;;;11.95;100.00;95909.06;1020486;28;20079;-69
2021/10/02 03:24:03;;;;;;;10.83;7.93;;;;;;;11.95;100.00;95911.72;1016368;29;20023;-69
2021/10/02 03:24:37;;;;;;;12.13;8.47;;;;;;;11.96;100.00;95907.97;1020264;29;20029;-69
2021/10/02 03:25:08;;;;;;;10.88;8.50;;;;;;;11.98;100.00;95907.72;1020224;28;20015;-69
2021/10/02 03:25:38;;;;;;;10.37;8.00;;;;;;;11.95;100.00;95909.06;1028268;28;20440;-69
2021/10/02 03:26:08;;;;;;;14.13;8.27;;;;;;;11.95;100.00;95909.06;1028218;28;20538;-69
2021/10/02 03:26:39;;;;;;;15.80;8.57;;;;;;;11.98;100.00;95910.38;1020220;29;20027;-69
2021/10/02 03:27:09;;;;;;;10.37;7.63;;;;;;;12.00;100.00;95912.78;1028078;28;20015;-69
2021/10/02 03:27:40;;;;;;;11.23;8.27;;;;;;;12.00;100.00;95902.84;1020276;29;20079;-69
2021/10/02 03:28:10;;;;;;;11.47;8.30;;;;;;;12.00;100.00;95908.22;1020228;29;20106;-69
2021/10/02 03:28:42;;;;;;;13.30;8.57;;;;;;;12.02;100.00;95915.97;1020379;29;20031;-69
2021/10/02 03:29:13;;;;;;;13.18;8.05;;;;;;;12.03;100.00;95914.88;1016201;29;20079;-69
2021/10/02 03:29:43;;;;;;;13.17;8.60;;;;;;;12.02;100.00;95908.72;1020313;29;20034;-69
2021/10/02 03:30:14;;;;;;;13.13;8.63;;;;;;;12.01;100.00;95907.13;1020316;29;20035;-69
2021/10/02 03:30:44;;;;;;;12.37;8.63;;;;;;;11.99;100.00;95914.66;1016362;29;20032;-69
2021/10/02 03:31:18;;;;;;;14.43;8.37;;;;;;;12.01;100.00;95915.16;1016331;29;20643;-69
2021/10/02 03:31:48;;;;;;;14.68;8.60;;;;;;;12.03;100.00;95913.03;1020224;29;20118;-69